createdAt,value
2022-10-05T00:00:06.002Z,82.54
2022-10-05T00:02:32.615Z,82.91
2022-10-05T00:04:59.343Z,82.11
2022-10-05T00:07:25.935Z,82.40
2022-10-05T00:09:56.501Z,82.59
2022-10-05T00:12:24.788Z,82.52
2022-10-05T00:14:55.331Z,82.54
2022-10-05T00:17:24.332Z,82.20
2022-10-05T00:19:54.452Z,82.63
2022-10-05T00:22:30.963Z,82.43
2022-10-05T00:25:03.181Z,82.49
2022-10-05T00:27:36.729Z,82.08
2022-10-05T00:30:19.894Z,82.55
2022-10-05T00:32:47.189Z,82.32
2022-10-05T00:35:15.558Z,82.50
2022-10-05T00:37:42.430Z,83.14
2022-10-05T00:40:35.415Z,82.08
2022-10-05T00:43:08.034Z,82.53
2022-10-05T00:45:48.196Z,82.55
2022-10-05T00:48:48.269Z,82.74
2022-10-05T00:51:29.762Z,83.21
2022-10-05T00:54:24.857Z,82.71
2022-10-05T00:57:23.995Z,82.79
2022-10-05T01:00:02.309Z,82.68
2022-10-05T01:03:07.610Z,82.72
2022-10-05T01:05:53.475Z,83.29
2022-10-05T01:08:44.126Z,83.32
2022-10-05T01:11:39.083Z,83.23
2022-10-05T01:14:05.470Z,83.67
2022-10-05T01:16:47.465Z,83.67
2022-10-05T01:19:26.289Z,83.62
2022-10-05T01:22:14.961Z,83.97
2022-10-05T01:24:57.935Z,83.92
2022-10-05T01:27:53.211Z,83.90
2022-10-05T01:30:21.531Z,83.90
2022-10-05T01:32:57.726Z,83.74
2022-10-05T01:35:33.831Z,83.67
2022-10-05T01:38:03.455Z,84.32
2022-10-05T01:40:39.166Z,84.05
2022-10-05T01:43:34.267Z,84.18
2022-10-05T01:46:11.061Z,84.51
2022-10-05T01:48:52.123Z,84.09
2022-10-05T01:51:41.862Z,84.51
2022-10-05T01:54:27.127Z,84.65
2022-10-05T01:57:29.036Z,84.60
2022-10-05T02:00:14.302Z,84.90
2022-10-05T02:03:03.081Z,84.90
2022-10-05T02:05:37.879Z,85.13
2022-10-05T02:08:10.931Z,85.33
2022-10-05T02:10:40.402Z,84.82
2022-10-05T02:13:16.841Z,85.36
2022-10-05T02:16:29.282Z,85.36
2022-10-05T02:19:14.653Z,85.30
2022-10-05T02:21:43.732Z,85.56
2022-10-05T02:24:17.099Z,85.54
2022-10-05T02:26:44.974Z,85.36
2022-10-05T02:29:15.361Z,85.55
2022-10-05T02:31:54.805Z,85.46
2022-10-05T02:34:29.984Z,85.43
2022-10-05T02:37:12.930Z,85.90
2022-10-05T02:39:53.134Z,85.82
2022-10-05T02:42:41.439Z,85.93
2022-10-05T02:45:07.864Z,85.99
2022-10-05T02:48:02.938Z,85.92
2022-10-05T02:50:50.769Z,86.11
2022-10-05T02:53:28.513Z,86.10
2022-10-05T02:56:08.560Z,86.42
2022-10-05T02:58:50.791Z,86.29
2022-10-05T03:01:25.402Z,86.36
2022-10-05T03:04:17.534Z,86.12
2022-10-05T03:07:03.373Z,85.96
2022-10-05T03:09:36.205Z,86.32
2022-10-05T03:12:14.068Z,86.17
2022-10-05T03:14:57.550Z,86.17
2022-10-05T03:17:56.418Z,86.01
2022-10-05T03:20:44.283Z,85.96
2022-10-05T03:23:34.021Z,85.48
2022-10-05T03:26:12.718Z,85.92
2022-10-05T03:29:08.616Z,86.02
2022-10-05T03:31:43.749Z,85.58
2022-10-05T03:34:51.862Z,85.41
2022-10-05T03:37:28.241Z,85.15
2022-10-05T03:40:07.374Z,85.31
2022-10-05T03:42:58.038Z,85.20
2022-10-05T03:45:29.231Z,84.58
2022-10-05T03:48:05.418Z,84.93
2022-10-05T03:50:55.538Z,84.49
2022-10-05T03:53:27.489Z,84.54
2022-10-05T03:56:03.354Z,84.40
2022-10-05T03:58:42.259Z,84.09
2022-10-05T04:01:21.246Z,83.90
2022-10-05T04:03:52.648Z,83.93
2022-10-05T04:06:24.887Z,84.20
2022-10-05T04:09:07.431Z,83.87
2022-10-05T04:11:40.442Z,83.96
2022-10-05T04:14:14.209Z,83.55
2022-10-05T04:16:44.372Z,83.74
2022-10-05T04:19:39.110Z,83.66
2022-10-05T04:22:18.871Z,83.69
2022-10-05T04:25:14.505Z,83.58
2022-10-05T04:28:03.274Z,83.43
2022-10-05T04:30:34.156Z,83.26
2022-10-05T04:33:01.098Z,82.69
2022-10-05T04:36:04.950Z,83.10
2022-10-05T04:38:43.474Z,83.51
2022-10-05T04:41:18.885Z,82.99
2022-10-05T04:44:59.534Z,83.02
2022-10-05T04:47:48.068Z,83.26
2022-10-05T04:50:29.521Z,82.99
2022-10-05T04:53:02.065Z,82.80
2022-10-05T04:55:51.566Z,82.95
2022-10-05T04:58:42.817Z,82.75
2022-10-05T05:01:37.193Z,82.68
2022-10-05T05:04:42.754Z,82.15
2022-10-05T05:07:37.316Z,82.21
2022-10-05T05:10:20.673Z,81.90
2022-10-05T05:13:35.045Z,81.92
2022-10-05T05:16:05.728Z,82.05
2022-10-05T05:18:41.490Z,81.94
2022-10-05T05:21:29.519Z,82.17
2022-10-05T05:24:05.287Z,81.59
2022-10-05T05:27:10.962Z,80.99
2022-10-05T05:29:42.645Z,81.49
2022-10-05T05:32:50.227Z,81.20
2022-10-05T05:35:22.490Z,81.39
2022-10-05T05:38:23.151Z,81.36
2022-10-05T05:40:52.567Z,81.72
2022-10-05T05:43:35.152Z,82.38
2022-10-05T05:46:51.068Z,82.18
2022-10-05T05:49:41.055Z,82.45
2022-10-05T05:52:20.359Z,82.11
2022-10-05T05:54:52.032Z,82.44
2022-10-05T05:57:27.277Z,82.73
2022-10-05T06:00:00.584Z,82.58
2022-10-05T06:02:41.935Z,82.78
2022-10-05T06:05:46.984Z,82.82
2022-10-05T06:08:24.344Z,83.01
2022-10-05T06:11:01.364Z,83.19
2022-10-05T06:13:34.121Z,82.84
2022-10-05T06:16:38.367Z,83.19
2022-10-05T06:19:11.365Z,82.93
2022-10-05T06:21:56.596Z,82.92
2022-10-05T06:24:38.814Z,82.52
2022-10-05T06:27:25.126Z,82.46
2022-10-05T06:30:06.614Z,82.86
2022-10-05T06:32:41.924Z,82.42
2022-10-05T06:35:15.883Z,82.43
2022-10-05T06:38:13.131Z,82.85
2022-10-05T06:40:42.679Z,82.68
2022-10-05T06:43:48.253Z,82.89
2022-10-05T06:46:46.819Z,82.80
2022-10-05T06:49:25.412Z,82.49
2022-10-05T06:51:56.822Z,82.38
2022-10-05T06:54:47.863Z,82.40
2022-10-05T06:57:43.177Z,82.68
2022-10-05T07:00:20.170Z,82.24
2022-10-05T07:03:18.287Z,81.93
2022-10-05T07:06:02.331Z,82.45
2022-10-05T07:08:29.042Z,82.31
2022-10-05T07:11:10.350Z,82.08
2022-10-05T07:14:18.566Z,81.80
2022-10-05T07:17:04.941Z,81.76
2022-10-05T07:19:36.986Z,81.52
2022-10-05T07:22:26.622Z,81.82
2022-10-05T07:25:22.880Z,81.66
2022-10-05T07:28:07.743Z,81.32
2022-10-05T07:30:54.883Z,81.05
2022-10-05T07:33:40.160Z,81.44
2022-10-05T07:36:32.397Z,81.30
2022-10-05T07:40:01.322Z,81.20
2022-10-05T07:42:48.842Z,81.47
2022-10-05T07:45:24.726Z,81.54
2022-10-05T07:47:55.460Z,81.15
2022-10-05T07:50:31.314Z,81.33
2022-10-05T07:53:09.224Z,81.49
2022-10-05T07:55:49.808Z,81.49
2022-10-05T07:58:30.456Z,81.46
2022-10-05T08:01:23.396Z,81.33
2022-10-05T08:04:03.296Z,80.82
2022-10-05T08:06:51.639Z,80.52
2022-10-05T08:09:37.992Z,80.73
2022-10-05T08:12:23.080Z,80.72
2022-10-05T08:14:56.026Z,80.49
2022-10-05T08:17:49.139Z,80.44
2022-10-05T08:20:16.805Z,80.39
2022-10-05T08:22:54.207Z,80.48
2022-10-05T08:25:30.353Z,79.58
2022-10-05T08:28:09.986Z,79.67
2022-10-05T08:30:51.625Z,79.99
2022-10-05T08:33:20.295Z,79.22
2022-10-05T08:36:07.487Z,79.25
2022-10-05T08:38:35.583Z,78.62
2022-10-05T08:41:24.630Z,79.08
2022-10-05T08:44:17.733Z,79.21
2022-10-05T08:47:10.017Z,78.79
2022-10-05T08:49:46.065Z,78.62
2022-10-05T08:53:06.695Z,78.93
2022-10-05T08:55:35.930Z,78.64
2022-10-05T08:58:39.966Z,78.32
2022-10-05T09:01:39.986Z,77.88
2022-10-05T09:04:44.283Z,78.00
2022-10-05T09:07:36.764Z,77.30
2022-10-05T09:10:25.481Z,77.61
2022-10-05T09:13:10.860Z,77.35
2022-10-05T09:15:51.115Z,76.82
2022-10-05T09:18:29.889Z,76.21
2022-10-05T09:21:09.283Z,76.18
2022-10-05T09:23:44.111Z,75.82
2022-10-05T09:26:42.363Z,75.64
2022-10-05T09:29:39.369Z,75.47
2022-10-05T09:32:21.010Z,75.04
2022-10-05T09:35:06.429Z,74.82
2022-10-05T09:38:03.946Z,74.55
2022-10-05T09:40:41.705Z,73.17
2022-10-05T09:43:18.792Z,73.28
2022-10-05T09:45:54.588Z,73.07
2022-10-05T09:48:31.759Z,72.52
2022-10-05T09:51:26.002Z,72.77
2022-10-05T09:54:03.703Z,72.85
2022-10-05T09:56:42.978Z,72.17
2022-10-05T09:59:31.378Z,72.29
2022-10-05T10:02:17.191Z,72.88
2022-10-05T10:05:20.151Z,72.18
2022-10-05T10:08:14.675Z,72.16
2022-10-05T10:11:00.122Z,72.20
2022-10-05T10:13:53.913Z,72.05
2022-10-05T10:16:53.827Z,71.99
2022-10-05T10:19:56.937Z,72.15
2022-10-05T10:22:45.318Z,72.03
2022-10-05T10:25:45.685Z,71.94
2022-10-05T10:28:15.197Z,70.99
2022-10-05T10:31:15.823Z,71.55
2022-10-05T10:34:22.010Z,71.87
2022-10-05T10:37:14.283Z,72.02
2022-10-05T10:39:56.368Z,71.48
2022-10-05T10:42:47.463Z,72.54
2022-10-05T10:45:32.671Z,72.66
2022-10-05T10:48:11.342Z,72.53
2022-10-05T10:50:56.623Z,72.58
2022-10-05T10:53:40.476Z,72.93
2022-10-05T10:56:22.226Z,72.93
2022-10-05T10:58:51.656Z,73.13
2022-10-05T11:01:24.272Z,72.63
2022-10-05T11:04:26.807Z,73.09
2022-10-05T11:07:21.029Z,73.43
2022-10-05T11:10:03.213Z,72.94
2022-10-05T11:12:49.006Z,73.34
2022-10-05T11:15:45.745Z,73.38
2022-10-05T11:18:30.724Z,73.19
2022-10-05T11:21:25.832Z,73.28
2022-10-05T11:24:23.266Z,72.95
2022-10-05T11:27:09.050Z,73.05
2022-10-05T11:29:56.214Z,72.99
2022-10-05T11:32:53.644Z,72.65
2022-10-05T11:35:32.284Z,72.93
2022-10-05T11:38:34.330Z,73.17
2022-10-05T11:41:13.169Z,72.49
2022-10-05T11:44:07.756Z,72.66
2022-10-05T11:47:02.950Z,72.30
2022-10-05T12:19:15.195Z,70.03
2022-10-05T12:31:38.590Z,69.02
2022-10-05T12:43:05.907Z,66.99
2022-10-05T12:46:24.265Z,67.36
2022-10-05T13:52:36.229Z,68.92
2022-10-05T14:22:04.224Z,66.57
2022-10-05T15:14:40.125Z,67.15
2022-10-05T15:22:54.434Z,68.08
2022-10-05T15:38:49.966Z,68.57
2022-10-05T15:45:33.004Z,68.96
2022-10-05T15:48:05.309Z,69.32
2022-10-05T15:50:38.137Z,69.01
2022-10-05T16:01:12.530Z,69.89
2022-10-05T16:08:19.307Z,69.86
2022-10-05T16:14:45.698Z,69.77
2022-10-05T16:21:27.886Z,69.14
2022-10-05T16:32:27.691Z,69.65
2022-10-05T16:42:35.705Z,70.29
2022-10-05T16:45:23.759Z,70.57
2022-10-05T16:52:21.753Z,71.26
2022-10-05T16:54:55.000Z,71.47
2022-10-05T16:57:56.645Z,71.30
2022-10-05T17:08:55.106Z,71.99
2022-10-05T17:19:42.196Z,72.49
2022-10-05T17:29:47.704Z,73.03
2022-10-05T17:32:55.694Z,73.21
2022-10-05T17:35:51.856Z,73.19
2022-10-05T17:38:23.202Z,73.42
2022-10-05T17:44:39.867Z,73.83
2022-10-05T17:47:11.387Z,73.92
2022-10-05T17:49:37.988Z,74.21
2022-10-05T17:52:42.884Z,74.19
2022-10-05T17:55:38.282Z,74.42
2022-10-05T17:58:23.921Z,74.21
2022-10-05T18:00:56.660Z,74.38
2022-10-05T18:07:21.860Z,74.72
2022-10-05T18:10:17.504Z,74.60
2022-10-05T18:13:10.887Z,74.92
2022-10-05T18:15:44.878Z,74.97
2022-10-05T18:18:32.919Z,75.03
2022-10-05T18:21:22.882Z,74.69
2022-10-05T18:23:58.454Z,75.27
2022-10-05T18:26:59.517Z,75.19
2022-10-05T18:30:02.900Z,75.27
2022-10-05T18:32:38.209Z,75.23
2022-10-05T18:35:32.725Z,75.31
2022-10-05T18:38:32.868Z,75.45
2022-10-05T18:41:21.430Z,75.52
2022-10-05T18:44:17.180Z,75.42
2022-10-05T18:47:07.188Z,75.68
2022-10-05T18:49:53.695Z,75.81
2022-10-05T18:53:12.803Z,75.75
2022-10-05T18:55:47.705Z,76.09
2022-10-05T18:58:35.145Z,76.21
2022-10-05T19:01:16.904Z,76.65
2022-10-05T19:03:43.483Z,76.34
2022-10-05T19:06:26.886Z,76.26
2022-10-05T19:12:25.293Z,76.91
2022-10-05T19:15:13.193Z,76.41
2022-10-05T19:18:12.174Z,76.61
2022-10-05T19:20:53.903Z,77.58
2022-10-05T19:23:47.585Z,77.55
2022-10-05T19:26:33.787Z,77.92
2022-10-05T19:29:26.983Z,77.99
2022-10-05T19:32:02.112Z,77.87
2022-10-05T19:34:43.431Z,78.13
2022-10-05T19:37:20.794Z,78.05
2022-10-05T19:39:54.138Z,78.47
2022-10-05T19:42:58.437Z,78.33
2022-10-05T19:45:27.407Z,79.32
2022-10-05T19:48:26.890Z,80.31
2022-10-05T19:51:01.263Z,81.08
2022-10-05T19:53:37.019Z,82.55
2022-10-05T19:56:25.205Z,83.36
2022-10-05T19:58:56.471Z,83.56
2022-10-05T20:01:31.346Z,84.16
2022-10-05T20:04:02.255Z,85.07
2022-10-05T20:06:31.126Z,84.90
2022-10-05T20:09:01.306Z,85.13
2022-10-05T20:11:29.160Z,85.74
2022-10-05T20:13:56.829Z,85.75
2022-10-05T20:16:47.647Z,86.21
2022-10-05T20:19:56.745Z,85.88
2022-10-05T20:22:31.472Z,86.85
2022-10-05T20:25:01.179Z,87.23
2022-10-05T20:27:37.119Z,87.50
2022-10-05T20:30:09.250Z,87.59
2022-10-05T20:32:35.717Z,87.43
2022-10-05T20:35:06.853Z,87.98
2022-10-05T20:37:41.292Z,88.03
2022-10-05T20:40:11.123Z,87.97
2022-10-05T20:42:37.789Z,88.32
2022-10-05T20:45:06.367Z,88.74
2022-10-05T20:47:33.753Z,89.15
2022-10-05T20:50:07.685Z,88.86
2022-10-05T20:52:38.133Z,89.42
2022-10-05T20:55:08.391Z,88.88
2022-10-05T20:57:38.498Z,89.53
2022-10-05T21:00:06.177Z,89.42
2022-10-05T21:02:33.032Z,89.57
2022-10-05T21:04:59.764Z,89.46
2022-10-05T21:07:31.374Z,89.70
2022-10-05T21:09:58.349Z,90.04
2022-10-05T21:12:24.903Z,89.94
2022-10-05T21:14:53.720Z,90.34
2022-10-05T21:17:20.407Z,89.09
2022-10-05T21:19:57.533Z,88.74
2022-10-05T21:22:26.574Z,88.85
2022-10-05T21:24:55.114Z,88.87
2022-10-05T21:27:21.661Z,89.28
2022-10-05T21:29:49.949Z,88.99
2022-10-05T21:32:16.617Z,89.39
2022-10-05T21:34:43.261Z,89.06
2022-10-05T21:37:12.075Z,88.74
2022-10-05T21:39:39.979Z,88.81
2022-10-05T21:42:14.133Z,89.07
2022-10-05T21:44:46.716Z,89.08
2022-10-05T21:47:13.729Z,89.75
2022-10-05T21:49:41.548Z,90.17
2022-10-05T21:52:08.210Z,89.81
2022-10-05T21:54:35.289Z,89.63
2022-10-05T21:57:03.008Z,89.81
2022-10-05T21:59:32.598Z,89.83
2022-10-05T22:01:59.457Z,90.28
2022-10-05T22:04:26.031Z,90.36
2022-10-05T22:06:55.537Z,90.29
2022-10-05T22:09:22.078Z,90.80
2022-10-05T22:11:49.240Z,90.88
2022-10-05T22:14:16.338Z,90.49
2022-10-05T22:16:44.582Z,91.27
2022-10-05T22:19:16.174Z,91.04
2022-10-05T22:21:42.903Z,90.87
2022-10-05T22:24:11.640Z,91.38
2022-10-05T22:26:40.366Z,91.65
2022-10-05T22:29:09.802Z,92.10
2022-10-05T22:31:36.832Z,92.13
2022-10-05T22:34:03.344Z,92.25
2022-10-05T22:36:29.854Z,92.72
2022-10-05T22:38:56.497Z,92.72
2022-10-05T22:41:23.172Z,92.96
2022-10-05T22:43:50.847Z,92.79
2022-10-05T22:46:18.264Z,93.38
2022-10-05T22:48:45.436Z,92.88
2022-10-05T22:51:12.204Z,93.40
2022-10-05T22:53:38.798Z,93.83
2022-10-05T22:56:10.960Z,94.04
2022-10-05T22:58:38.391Z,93.59
2022-10-05T23:01:08.312Z,93.91
2022-10-05T23:03:35.373Z,93.94
2022-10-05T23:06:07.631Z,93.78
2022-10-05T23:08:35.910Z,93.85
2022-10-05T23:11:13.746Z,93.62
2022-10-05T23:13:40.797Z,93.83
2022-10-05T23:16:12.888Z,93.72
2022-10-05T23:18:40.102Z,94.10
2022-10-05T23:21:08.796Z,94.07
2022-10-05T23:23:37.098Z,93.97
2022-10-05T23:26:05.364Z,94.00
2022-10-05T23:28:32.529Z,94.08
2022-10-05T23:31:07.824Z,94.05
2022-10-05T23:33:35.427Z,94.16
2022-10-05T23:36:04.772Z,94.15
2022-10-05T23:38:31.531Z,93.52
2022-10-05T23:40:59.778Z,93.64
2022-10-05T23:43:27.296Z,93.64
2022-10-05T23:45:53.963Z,94.00
2022-10-05T23:48:20.567Z,93.84
2022-10-05T23:50:48.249Z,93.66
2022-10-05T23:53:16.014Z,93.52
2022-10-05T23:55:43.003Z,93.66
2022-10-05T23:58:10.063Z,93.19
